Time;durP1;ratioP1;P1;durP2;ratioP2;P2;SDS_P1;SDS_P2;PMS_P1;PMS_P2;Temp;Humidity;BMP_temperature;BMP_pressure;BME280_temperature;BME280_humidity;BME280_pressure;Samples;Min_cycle;Max_cycle;Signal;HPM_P1;HPM_P2
2021/01/25 00:00:46;;;;;;;14.43;10.48;;;1.50;99.90;;;;;;9979732;29;19980;-93
2021/01/25 00:05:47;;;;;;;;;;;0.90;99.90;;;;;;9973975;29;20065;-92
2021/01/25 00:10:49;;;;;;;18.67;12.40;;;0.50;99.90;;;;;;9988767;29;20027;-93
2021/01/25 00:15:50;;;;;;;21.45;12.48;;;0.10;99.90;;;;;;9972121;29;20058;-93
2021/01/25 00:20:52;;;;;;;17.50;12.38;;;0.70;99.90;;;;;;9972390;29;20088;-93
2021/01/25 00:25:53;;;;;;;;;;;0.10;99.90;;;;;;9973394;29;20422;-94
2021/01/25 00:30:55;;;;;;;20.02;13.48;;;1.00;99.90;;;;;;9972348;29;20401;-93
2021/01/25 00:35:56;;;;;;;23.23;14.82;;;0.10;99.90;;;;;;9957694;29;20058;-93
2021/01/25 00:40:58;;;;;;;25.05;13.45;;;0.10;99.90;;;;;;9980082;29;20141;-93
2021/01/25 00:45:59;;;;;;;21.17;13.85;;;1.50;99.90;;;;;;9987556;29;20058;-93
2021/01/25 00:51:01;;;;;;;;;;;-0.20;99.90;;;;;;9987648;29;20145;-93
2021/01/25 00:56:03;;;;;;;21.48;14.80;;;0.20;99.90;;;;;;9957247;29;20004;-93
2021/01/25 01:01:05;;;;;;;21.88;15.07;;;0.20;99.90;;;;;;9972053;29;20082;-93
2021/01/25 01:06:07;;;;;;;28.90;19.65;;;0.20;99.90;;;;;;9986694;29;20108;-93
2021/01/25 01:11:10;;;;;;;22.52;14.70;;;0.20;99.90;;;;;;9986250;29;20120;-94
2021/01/25 01:16:12;;;;;;;26.85;18.52;;;-0.20;99.90;;;;;;9973632;29;20145;-93
2021/01/25 01:21:13;;;;;;;23.60;15.23;;;0.50;99.90;;;;;;9971440;29;20157;-93
2021/01/25 01:26:15;;;;;;;20.55;14.10;;;1.00;99.90;;;;;;9986274;29;20062;-93
2021/01/25 01:31:16;;;;;;;28.80;17.95;;;0.00;99.90;;;;;;9985812;29;20137;-93
2021/01/25 01:36:18;;;;;;;27.77;17.92;;;0.30;99.90;;;;;;9954864;29;20451;-93
2021/01/25 01:41:20;;;;;;;19.73;13.45;;;1.20;99.90;;;;;;9970173;29;20141;-94
2021/01/25 01:46:22;;;;;;;29.85;17.63;;;0.70;99.90;;;;;;9955238;29;20146;-93
2021/01/25 01:51:24;;;;;;;33.10;20.33;;;-0.30;99.90;;;;;;9970601;29;20494;-93
2021/01/25 01:56:25;;;;;;;23.60;15.23;;;1.20;99.90;;;;;;9955230;29;20141;-93
2021/01/25 02:01:27;;;;;;;25.95;16.30;;;0.30;99.90;;;;;;9955520;29;20144;-93
2021/01/25 02:06:31;;;;;;;27.42;17.42;;;0.50;99.90;;;;;;9969516;29;20467;-93
2021/01/25 02:11:33;;;;;;;23.42;14.65;;;0.20;99.90;;;;;;9988792;29;20494;-93
2021/01/25 02:16:42;;;;;;;23.80;15.63;;;0.60;99.90;;;;;;9985031;29;20054;-93
2021/01/25 02:22:13;;;;;;;23.55;18.05;;;0.50;99.90;;;;;;9969705;29;20536;-93
2021/01/25 02:27:28;;;;;;;20.80;16.00;;;0.40;99.90;;;;;;9969783;29;20066;-93
2021/01/25 02:32:32;;;;;;;23.02;16.70;;;0.50;99.90;;;;;;10035400;24;20063;-93
2021/01/25 02:37:36;;;;;;;29.30;17.20;;;1.00;99.90;;;;;;10052933;29;20057;-93
2021/01/25 02:42:40;;;;;;;27.85;16.90;;;0.20;99.90;;;;;;10082205;29;20140;-93
2021/01/25 02:47:43;;;;;;;25.70;18.55;;;0.90;99.90;;;;;;10052258;29;20061;-93
2021/01/25 02:52:45;;;;;;;25.83;17.48;;;0.20;99.90;;;;;;10037509;29;20060;-93
2021/01/25 02:57:47;;;;;;;35.97;23.63;;;1.10;99.90;;;;;;10066739;29;20412;-93
2021/01/25 03:02:49;;;;;;;21.45;14.60;;;0.60;99.90;;;;;;10082845;29;20063;-93
2021/01/25 03:07:52;;;;;;;26.55;17.45;;;0.30;99.90;;;;;;10067058;29;20053;-93
2021/01/25 03:13:05;;;;;;;26.85;16.33;;;1.40;99.90;;;;;;10051819;29;20457;-93
2021/01/25 03:18:07;;;;;;;24.27;15.18;;;0.50;99.90;;;;;;10066980;29;20065;-93
2021/01/25 03:23:08;;;;;;;22.45;15.00;;;0.60;99.90;;;;;;10066307;29;20145;-93
2021/01/25 03:28:10;;;;;;;;;;;0.80;99.90;;;;;;10082106;29;20144;-94
2021/01/25 03:33:11;;;;;;;23.45;13.05;;;0.80;99.90;;;;;;10081356;29;20388;-94
2021/01/25 03:38:13;;;;;;;;;;;0.30;99.90;;;;;;10052207;29;20068;-94
2021/01/25 03:43:15;;;;;;;25.05;16.35;;;1.60;99.90;;;;;;10066906;29;19990;-94
2021/01/25 03:48:16;;;;;;;24.48;17.23;;;0.80;99.90;;;;;;10081980;29;20545;-95
2021/01/25 03:53:18;;;;;;;33.83;17.98;;;0.30;99.90;;;;;;10086731;29;20049;-94
2021/01/25 03:58:19;;;;;;;36.00;21.95;;;1.00;99.90;;;;;;10072743;29;20497;-94
2021/01/25 04:03:21;;;;;;;39.65;23.90;;;0.50;99.90;;;;;;10073196;29;20396;-94
2021/01/25 04:08:23;;;;;;;30.45;18.38;;;0.50;99.90;;;;;;10072970;29;20068;-94
2021/01/25 04:13:24;;;;;;;30.92;21.00;;;1.30;99.90;;;;;;10088907;29;20120;-94
2021/01/25 04:18:26;;;;;;;25.15;18.27;;;0.70;99.90;;;;;;10072868;29;20088;-94
2021/01/25 04:23:27;;;;;;;37.58;22.98;;;1.00;99.90;;;;;;10072086;29;20148;-94
2021/01/25 04:28:29;;;;;;;32.03;22.63;;;1.30;99.90;;;;;;10057149;29;20053;-94
2021/01/25 04:33:30;;;;;;;29.50;20.77;;;0.90;99.90;;;;;;10056498;29;20064;-94
2021/01/25 04:38:32;;;;;;;;;;;0.10;99.90;;;;;;10072525;29;20061;-94
2021/01/25 04:43:34;;;;;;;35.33;21.07;;;1.00;99.90;;;;;;10086256;29;20340;-94
2021/01/25 04:48:37;;;;;;;25.42;17.65;;;1.00;99.90;;;;;;10086693;29;20165;-95
2021/01/25 04:53:40;;;;;;;36.38;22.45;;;-0.20;99.90;;;;;;10086494;29;20144;-94
2021/01/25 04:58:42;;;;;;;24.90;17.05;;;-0.30;99.90;;;;;;10055332;29;20067;-94
2021/01/25 05:03:44;;;;;;;38.63;23.42;;;-0.40;99.90;;;;;;10056144;29;20144;-94
2021/01/25 05:08:46;;;;;;;22.20;15.52;;;0.00;99.90;;;;;;10055216;29;20084;-94
2021/01/25 05:13:48;;;;;;;36.95;22.13;;;-0.40;99.90;;;;;;10084898;29;20057;-94
2021/01/25 05:18:58;;;;;;;30.02;20.50;;;0.00;99.90;;;;;;10054843;29;20067;-94
2021/01/25 05:24:07;;;;;;;26.85;18.17;;;-0.30;99.90;;;;;;10040116;29;20057;-94
2021/01/25 05:29:09;;;;;;;32.85;22.52;;;-0.20;99.90;;;;;;10055922;29;20061;-94
2021/01/25 05:34:18;;;;;;;28.20;20.35;;;-0.30;99.90;;;;;;10053878;29;20144;-94
2021/01/25 05:39:20;;;;;;;31.17;21.15;;;-0.30;99.90;;;;;;10084880;29;20084;-94
2021/01/25 05:44:22;;;;;;;;;;;-0.40;99.90;;;;;;10070199;29;20080;-94
2021/01/25 05:49:27;;;;;;;31.63;21.17;;;0.20;99.90;;;;;;10068791;29;19924;-94
2021/01/25 05:54:28;;;;;;;32.78;22.02;;;0.00;99.90;;;;;;10069121;29;20080;-93
2021/01/25 05:59:29;;;;;;;34.72;21.00;;;0.60;99.90;;;;;;10053970;29;20144;-93
2021/01/25 06:04:32;;;;;;;32.92;22.35;;;-0.60;99.90;;;;;;10053615;29;20135;-94
2021/01/25 06:09:53;;;;;;;30.38;19.70;;;-0.60;99.90;;;;;;10052970;29;20057;-93
2021/01/25 06:15:07;;;;;;;32.47;20.15;;;-0.60;99.90;;;;;;10083513;29;20088;-93
2021/01/25 06:20:09;;;;;;;32.63;19.75;;;-0.70;99.90;;;;;;10083453;29;20056;-93
2021/01/25 06:25:14;;;;;;;26.65;17.38;;;-0.90;99.90;;;;;;10053732;29;20149;-93
2021/01/25 06:30:18;;;;;;;24.45;18.05;;;-0.80;99.90;;;;;;10082982;29;20063;-93
2021/01/25 06:35:20;;;;;;;30.38;18.08;;;-1.00;99.90;;;;;;10067273;29;20057;-93
2021/01/25 06:40:29;;;;;;;29.33;20.27;;;-1.10;99.90;;;;;;10067869;29;20061;-93
2021/01/25 06:45:34;;;;;;;28.70;20.67;;;-0.90;99.90;;;;;;10082522;29;20081;-93
2021/01/25 06:50:36;;;;;;;29.33;20.50;;;-1.20;99.90;;;;;;10082708;29;20088;-93
2021/01/25 06:55:43;;;;;;;30.05;20.27;;;-0.70;99.90;;;;;;10067570;29;20142;-93
2021/01/25 07:00:52;;;;;;;29.50;20.10;;;-1.20;99.90;;;;;;10082699;29;20152;-93
2021/01/25 07:05:58;;;;;;;29.95;21.40;;;-1.20;99.90;;;;;;10050802;29;20064;-93
2021/01/25 07:11:03;;;;;;;27.88;20.10;;;-1.20;99.90;;;;;;10066198;29;20045;-92
2021/01/25 07:16:05;;;;;;;34.42;22.90;;;-1.40;99.90;;;;;;10082152;29;20056;-93
2021/01/25 07:21:07;;;;;;;37.50;23.70;;;-1.20;99.90;;;;;;10051709;29;20069;-93
2021/01/25 07:26:12;;;;;;;32.72;22.02;;;-1.50;99.90;;;;;;10069442;29;20531;-93
2021/01/25 07:31:14;;;;;;;35.33;23.67;;;-1.60;99.90;;;;;;10088806;29;20136;-93
2021/01/25 07:36:16;;;;;;;32.95;21.92;;;-1.50;99.90;;;;;;10058849;29;20137;-93
2021/01/25 07:41:18;;;;;;;30.45;22.17;;;-1.40;99.90;;;;;;10057789;29;20065;-93
2021/01/25 07:46:23;;;;;;;36.05;23.73;;;-1.40;99.90;;;;;;10073579;29;20067;-92
2021/01/25 07:51:29;;;;;;;32.72;21.00;;;-1.30;99.90;;;;;;10088310;29;20136;-93
2021/01/25 07:56:31;;;;;;;34.03;21.77;;;-1.50;99.90;;;;;;10088198;29;20560;-93
2021/01/25 08:01:57;;;;;;;32.03;22.52;;;-1.20;99.90;;;;;;10058671;29;20144;-93
2021/01/25 08:07:01;;;;;;;35.80;23.88;;;-1.30;99.90;;;;;;10087100;29;20056;-92
2021/01/25 08:12:03;;;;;;;34.58;22.92;;;-1.30;99.90;;;;;;10072271;29;20056;-91
2021/01/25 08:17:36;;;;;;;30.00;21.52;;;-1.10;99.90;;;;;;10008473;29;20122;-92
2021/01/25 08:23:07;;;;;;;40.40;25.58;;;-1.20;99.90;;;;;;10066512;29;20080;-91
2021/01/25 08:28:12;;;;;;;33.17;22.90;;;-0.80;99.90;;;;;;10086008;29;20502;-91
2021/01/25 09:06:59;;;;;;;32.23;22.43;;;-1.00;99.90;;;;;;10023037;29;20053;-95
2021/01/25 09:12:02;;;;;;;33.58;24.08;;;-1.00;99.90;;;;;;9994482;29;20096;-94
2021/01/25 09:17:04;;;;;;;32.47;23.25;;;-0.90;99.90;;;;;;9964985;29;20074;-94
2021/01/25 09:22:09;;;;;;;39.47;26.67;;;1.40;99.90;;;;;;10009120;29;20072;-94
2021/01/25 09:27:12;;;;;;;33.55;24.55;;;1.30;99.90;;;;;;10010730;29;20146;-95
2021/01/25 09:32:13;;;;;;;35.08;23.48;;;0.50;99.90;;;;;;9993353;29;20061;-96
2021/01/25 09:37:15;;;;;;;;;;;0.10;99.90;;;;;;9994265;29;20057;-96
2021/01/25 09:42:16;;;;;;;41.65;25.45;;;1.00;99.90;;;;;;9993733;29;19925;-95
2021/01/25 09:47:18;;;;;;;;;;;0.70;99.90;;;;;;9993344;29;20175;-95
2021/01/25 09:52:19;;;;;;;33.80;23.63;;;0.80;99.90;;;;;;10007992;29;19992;-96
2021/01/25 09:57:21;;;;;;;36.13;23.70;;;1.00;99.90;;;;;;10009032;29;20057;-96
2021/01/25 10:02:23;;;;;;;35.17;23.83;;;0.20;99.90;;;;;;10009280;29;20061;-95
2021/01/25 10:07:25;;;;;;;34.70;22.65;;;0.30;99.90;;;;;;10007104;29;20086;-96
2021/01/25 10:12:27;;;;;;;35.50;21.52;;;0.10;99.90;;;;;;10007160;29;20058;-95
2021/01/25 10:17:30;;;;;;;28.45;21.83;;;0.10;99.90;;;;;;9992718;29;20521;-95
2021/01/25 10:22:31;;;;;;;31.02;20.77;;;0.00;99.90;;;;;;10007963;29;20141;-96
2021/01/25 10:27:34;;;;;;;26.73;20.08;;;0.20;99.90;;;;;;9994389;29;20062;-96
2021/01/25 10:32:35;;;;;;;29.25;20.65;;;1.00;99.90;;;;;;10007547;29;20054;-96
2021/01/25 10:37:37;;;;;;;;;;;0.60;99.90;;;;;;9992978;29;20064;-96
2021/01/25 10:42:39;;;;;;;28.90;18.63;;;0.90;99.90;;;;;;9991820;29;19935;-96
2021/01/25 10:47:41;;;;;;;34.78;19.88;;;0.60;99.90;;;;;;9993699;29;20359;-96
2021/01/25 10:52:44;;;;;;;29.58;19.17;;;1.60;99.90;;;;;;9997374;29;20064;-96
2021/01/25 10:57:45;;;;;;;28.08;17.95;;;1.80;99.90;;;;;;10006563;29;20085;-96
2021/01/25 11:02:48;;;;;;;21.33;15.70;;;0.60;99.90;;;;;;10014529;29;20058;-95
2021/01/25 11:07:50;;;;;;;22.05;13.95;;;0.70;99.90;;;;;;10014116;29;20502;-96
2021/01/25 11:12:53;;;;;;;20.00;14.43;;;0.80;99.90;;;;;;10028929;29;20054;-96
2021/01/25 11:17:54;;;;;;;16.73;12.00;;;0.70;99.90;;;;;;9999384;29;20058;-96
2021/01/25 11:22:56;;;;;;;;;;;1.60;99.90;;;;;;10013989;29;20070;-96
2021/01/25 11:27:57;;;;;;;15.23;10.77;;;1.10;99.90;;;;;;9998513;29;19981;-96
2021/01/25 11:32:59;;;;;;;18.83;11.82;;;1.20;99.90;;;;;;9999040;29;20054;-96
2021/01/25 11:38:01;;;;;;;17.10;11.02;;;1.10;99.90;;;;;;10013225;29;20133;-96
2021/01/25 11:43:03;;;;;;;21.33;12.20;;;1.80;99.90;;;;;;10013322;29;20062;-96
2021/01/25 11:48:06;;;;;;;20.35;11.85;;;2.00;99.90;;;;;;9998445;29;20149;-96
2021/01/25 11:53:07;;;;;;;21.17;11.90;;;1.40;99.90;;;;;;9998396;29;20070;-96
2021/01/25 11:58:09;;;;;;;22.35;11.57;;;2.10;99.90;;;;;;9983902;29;20482;-96
2021/01/25 12:03:11;;;;;;;22.30;13.52;;;1.50;99.90;;;;;;10013730;29;20065;-96
2021/01/25 12:08:16;;;;;;;23.73;11.32;;;1.40;99.90;;;;;;10015278;29;20118;-96
2021/01/25 12:13:17;;;;;;;17.05;10.60;;;2.40;99.90;;;;;;9998491;29;20145;-96
2021/01/25 12:18:19;;;;;;;15.40;9.63;;;2.00;99.90;;;;;;10014132;29;20088;-96
2021/01/25 12:23:22;;;;;;;16.33;9.30;;;2.50;99.90;;;;;;10003578;29;20062;-96
2021/01/25 12:28:23;;;;;;;14.85;9.43;;;2.40;99.90;;;;;;10022125;29;20065;-96
2021/01/25 12:33:25;;;;;;;;;;;2.00;99.90;;;;;;10020772;29;20054;-96
2021/01/25 12:38:27;;;;;;;17.30;10.48;;;2.00;99.90;;;;;;10019574;29;19931;-96
2021/01/25 12:43:29;;;;;;;15.43;10.38;;;2.90;99.90;;;;;;10017890;29;20093;-96
2021/01/25 12:48:31;;;;;;;18.50;11.73;;;2.20;99.90;;;;;;10032943;29;20054;-96
2021/01/25 12:53:33;;;;;;;12.90;9.75;;;3.10;99.90;;;;;;10034558;29;20054;-96
2021/01/25 12:58:35;;;;;;;9.77;7.50;;;2.20;99.90;;;;;;10013153;29;20145;-96
2021/01/25 13:03:36;;;;;;;;;;;3.20;99.90;;;;;;10038797;29;20050;-96
2021/01/25 13:08:38;;;;;;;11.40;7.27;;;2.50;99.90;;;;;;10014566;29;19928;-96
2021/01/25 13:13:40;;;;;;;9.38;7.43;;;2.70;99.90;;;;;;10014267;29;20516;-96
2021/01/25 13:18:41;;;;;;;;;;;2.90;99.90;;;;;;10013691;29;20578;-96
2021/01/25 13:23:43;;;;;;;12.82;7.32;;;3.10;99.90;;;;;;10010935;29;19948;-96
2021/01/25 13:28:45;;;;;;;8.77;5.68;;;2.70;99.90;;;;;;9993870;29;20090;-96
2021/01/25 13:33:47;;;;;;;9.25;5.85;;;2.10;99.90;;;;;;9994457;29;20137;-96
2021/01/25 13:38:48;;;;;;;8.07;5.95;;;2.60;99.90;;;;;;10000428;29;20089;-96
2021/01/25 13:43:50;;;;;;;7.60;5.82;;;1.80;99.90;;;;;;10007286;29;20085;-96
2021/01/25 16:57:32;;;;;;;10.23;7.17;;;1.80;99.90;;;;;;10040522;29;20494;-94
2021/01/25 17:02:33;;;;;;;17.67;8.98;;;2.10;99.90;;;;;;9979403;29;20525;-95
2021/01/25 17:07:35;;;;;;;;;;;1.90;99.90;;;;;;9980433;29;20459;-95
2021/01/25 17:12:37;;;;;;;11.25;6.82;;;2.00;99.90;;;;;;9995515;29;19924;-94
2021/01/25 17:17:38;;;;;;;21.38;9.48;;;1.60;99.90;;;;;;10009542;29;20574;-95
2021/01/25 17:22:45;;;;;;;18.38;8.63;;;3.00;99.90;;;;;;10009659;29;20478;-95
2021/01/25 17:27:47;;;;;;;11.23;8.20;;;2.00;99.90;;;;;;10009287;29;20141;-96
2021/01/25 17:32:49;;;;;;;21.38;12.63;;;2.20;99.90;;;;;;9978735;29;20088;-96
2021/01/25 17:37:51;;;;;;;20.15;12.48;;;1.60;99.90;;;;;;10009213;29;20058;-96
2021/01/25 17:42:53;;;;;;;19.75;12.75;;;2.50;99.90;;;;;;10008752;29;20058;-92
2021/01/25 17:47:55;;;;;;;26.95;13.43;;;2.00;99.90;;;;;;9993994;29;20066;-92
2021/01/25 17:52:57;;;;;;;18.13;11.32;;;1.80;99.90;;;;;;9979675;29;20064;-92
2021/01/25 17:57:59;;;;;;;17.02;10.82;;;2.90;99.90;;;;;;9992582;29;20057;-93
2021/01/25 18:03:00;;;;;;;14.25;9.75;;;2.90;99.90;;;;;;10007891;29;20062;-92
2021/01/25 18:08:03;;;;;;;15.30;7.35;;;1.80;99.90;;;;;;10008622;29;20149;-93
2021/01/25 18:13:07;;;;;;;10.05;6.65;;;2.10;99.90;;;;;;9979109;29;20136;-92
2021/01/25 18:18:09;;;;;;;7.00;4.00;;;2.70;99.90;;;;;;9993240;29;20090;-92
2021/01/25 18:23:13;;;;;;;9.77;4.03;;;3.60;99.90;;;;;;10022791;29;20144;-92
2021/01/25 18:28:20;;;;;;;6.57;2.53;;;2.10;99.90;;;;;;10007980;29;20092;-92
2021/01/25 18:33:23;;;;;;;6.32;2.33;;;3.60;99.90;;;;;;9992950;29;20057;-93
2021/01/25 18:38:40;;;;;;;7.18;2.20;;;2.50;99.90;;;;;;10008516;29;20150;-93
2021/01/25 18:43:52;;;;;;;12.95;2.10;;;2.70;99.90;;;;;;10007754;29;20054;-94
2021/01/25 18:48:55;;;;;;;9.32;2.03;;;2.70;99.90;;;;;;10008757;29;20081;-92
2021/01/25 18:54:04;;;;;;;6.03;2.28;;;3.50;99.90;;;;;;10023263;29;20058;-93
2021/01/25 18:59:07;;;;;;;11.32;3.47;;;2.30;99.90;;;;;;9991078;29;20467;-93
2021/01/25 19:04:09;;;;;;;6.07;3.58;;;2.60;99.90;;;;;;9992180;29;20074;-92
2021/01/25 19:09:10;;;;;;;9.18;3.85;;;2.80;99.90;;;;;;9992632;29;20054;-92
2021/01/25 19:14:12;;;;;;;6.82;3.72;;;3.50;99.90;;;;;;9992791;29;20470;-93
2021/01/25 19:19:13;;;;;;;8.88;3.95;;;2.00;99.90;;;;;;10007869;29;20473;-91
2021/01/25 19:24:20;;;;;;;9.90;3.42;;;2.80;99.90;;;;;;9997091;29;20110;-93
2021/01/25 19:29:21;;;;;;;6.53;3.72;;;1.90;99.90;;;;;;9998623;29;20081;-94
2021/01/25 19:34:23;;;;;;;8.40;4.15;;;2.60;99.90;;;;;;10028628;29;20068;-93
2021/01/25 19:39:24;;;;;;;11.05;4.78;;;2.80;99.90;;;;;;10013478;29;20125;-94
2021/01/25 19:44:26;;;;;;;13.02;4.43;;;2.90;99.90;;;;;;10033339;29;20066;-94
2021/01/25 19:49:28;;;;;;;9.00;4.47;;;2.60;99.90;;;;;;9997987;29;20053;-94
2021/01/25 19:54:30;;;;;;;10.20;5.10;;;2.60;99.90;;;;;;9999145;29;20138;-95
2021/01/25 19:59:31;;;;;;;12.52;4.95;;;2.40;99.90;;;;;;10013089;29;20058;-94
2021/01/25 20:04:33;;;;;;;15.65;5.65;;;2.70;99.90;;;;;;10013352;29;20057;-95
2021/01/25 20:09:34;;;;;;;;;;;2.10;99.90;;;;;;9999840;29;20058;-94
2021/01/25 20:14:36;;;;;;;11.82;5.93;;;2.20;99.90;;;;;;10012337;29;19964;-94
2021/01/25 20:19:37;;;;;;;11.20;7.15;;;2.00;99.90;;;;;;9998020;29;20141;-94
2021/01/25 20:24:39;;;;;;;;;;;2.00;99.90;;;;;;9982225;29;20065;-95
2021/01/25 20:29:41;;;;;;;20.90;7.55;;;3.10;99.90;;;;;;9996372;29;19971;-94
2021/01/25 20:34:44;;;;;;;22.63;9.40;;;3.30;99.90;;;;;;9966918;29;20066;-95
2021/01/25 20:39:46;;;;;;;18.10;10.05;;;2.30;99.90;;;;;;9969202;29;20061;-96
2021/01/25 20:44:48;;;;;;;17.27;8.55;;;3.20;99.90;;;;;;9981391;29;20090;-96
2021/01/25 20:49:49;;;;;;;20.75;9.57;;;2.70;99.90;;;;;;9995163;29;20053;-96
2021/01/25 20:54:51;;;;;;;18.08;10.38;;;3.10;99.90;;;;;;9965661;29;20119;-95
2021/01/25 20:59:53;;;;;;;22.95;11.70;;;2.60;99.90;;;;;;10011140;29;20066;-95
2021/01/25 22:29:51;;;;;;;20.83;13.15;;;2.80;99.90;;;;;;10034306;29;20051;-95
2021/01/25 22:34:57;;;;;;;26.33;12.52;;;2.90;99.90;;;;;;9939960;29;20058;-93
2021/01/25 22:39:58;;;;;;;23.98;11.98;;;2.90;99.90;;;;;;9969936;29;20451;-93
2021/01/25 22:45:02;;;;;;;22.02;11.13;;;3.10;99.90;;;;;;9940269;29;20145;-96
2021/01/25 22:50:08;;;;;;;28.23;11.20;;;3.50;99.90;;;;;;9969073;29;20525;-95
2021/01/25 22:55:18;;;;;;;27.35;13.13;;;3.10;99.90;;;;;;9969863;29;20417;-95
2021/01/25 23:00:21;;;;;;;18.15;9.77;;;3.00;99.90;;;;;;9961927;29;20474;-94
2021/01/25 23:05:31;;;;;;;14.32;8.00;;;3.00;99.90;;;;;;9977265;29;20066;-95
2021/01/25 23:10:34;;;;;;;10.68;7.28;;;2.90;99.90;;;;;;9976641;29;20058;-94
2021/01/25 23:15:42;;;;;;;13.00;6.43;;;2.50;99.90;;;;;;9977489;29;20137;-95
2021/01/25 23:20:45;;;;;;;7.45;5.43;;;3.10;99.90;;;;;;9966697;29;20062;-94
2021/01/25 23:25:51;;;;;;;11.00;5.43;;;2.60;99.90;;;;;;9938511;29;20109;-95
2021/01/25 23:30:53;;;;;;;12.18;5.40;;;2.80;99.90;;;;;;9938005;29;20055;-94
2021/01/25 23:35:59;;;;;;;7.95;3.42;;;3.10;99.90;;;;;;9908692;29;20067;-95
2021/01/25 23:41:04;;;;;;;9.50;3.17;;;3.00;99.90;;;;;;9939005;29;20090;-95
2021/01/25 23:46:13;;;;;;;5.80;2.35;;;2.60;99.90;;;;;;9937682;29;20067;-96
2021/01/25 23:51:16;;;;;;;3.90;2.00;;;2.40;99.90;;;;;;9938925;29;20587;-94
2021/01/25 23:56:21;;;;;;;2.13;1.92;;;3.70;99.90;;;;;;9937280;29;20082;-95
